• Join FlightAware (Why Join?)
  • Login
  • US Flag 
03:10AM EDT


 

Airport Tracker/Info


-or-


 

Live Flight TrackerFlight Track Log ✈ UPS1122 ✈ 04-Jun-2013 ✈ KBDL - KALB

Flight Track Log - Related Links

Times and Time Zones

All times are in EDT time to prevent confusion due to time zone crossing. See the UPS1122 flight status page for this flight to view local times or setup timezone preferences in your user account.

Time Position Orientation Groundspeed Altitude Reporting Facility
EDT Latitude Longitude Course Direction KTS MPH feet Rate Location/Type
06:24AM 41.9417 -72.6969 315° West 98 113 1,500  Level Boston Center
06:24AM 41.9500 -72.7081 315° West 133 153 3,000 2,700 Climbing Boston Center
06:25AM 41.9853 -72.7528 317° Northwest 185 213 5,400 2,820 Climbing Boston Center
06:26AM 42.0308 -72.8175 313° West 243 280 8,700 2,220 Climbing Boston Center
06:27AM 42.0786 -72.8847 314° West 261 300 10,000 960 Climbing Boston Center
06:27AM 42.1014 -72.9158 315° West 283 326 10,100 60 Climbing Boston Center
06:29AM 42.1572 -72.9917 315° West 259 298 10,100  Level Boston Center
06:30AM 42.2069 -73.0622 314° West 254 292 10,100  Level Boston Center
06:31AM 42.2567 -73.1300 315° West 259 298 10,100 -60 Level Boston Center
06:32AM 42.3083 -73.2008 315° West 259 298 10,000  Descending Boston Center
06:33AM 42.3578 -73.2717 313° West 260 299 10,100 -180 Climbing Boston Center
06:34AM 42.3925 -73.3536 300° West 251 289 9,700 -960 Descending Boston Center
06:35AM 42.4253 -73.4414 297° West 240 276 8,200 -1,440 Descending Boston Center
06:36AM 42.4558 -73.5206 298° West 236 272 6,800 -1,500 Descending Boston Center
06:37AM 42.4819 -73.5972 295° West 228 262 5,200 -1,440 Descending Boston Center
06:38AM 42.5125 -73.6739 298° West 228 262 4,000 -960 Descending Boston Center
06:39AM 42.5347 -73.7447 293° West 208 239 3,300 -660 Descending Boston Center
06:40AM 42.5631 -73.7989 305° West 169 194 2,700 -360 Descending Boston Center
06:41AM 42.6047 -73.8025 356° North 147 169 2,600 -240 Descending Boston Center
06:42AM 42.6444 -73.8033 359° North 135 155 2,300 -480 Descending Boston Center
06:43AM 42.6756 -73.8042 359° North 97 112 1,600 -720 Descending Boston Center
06:44AM 42.7069 -73.8047 359° North 102 117 900 -720 Descending Boston Center